createdAt,value
2022-08-12T00:00:14.130Z,34.11
2022-08-12T00:01:14.121Z,32.82
2022-08-12T00:02:14.116Z,33.79
2022-08-12T00:03:14.825Z,33.47
2022-08-12T00:04:14.066Z,33.47
2022-08-12T00:05:14.022Z,33.47
2022-08-12T00:06:14.027Z,32.50
2022-08-12T00:07:14.047Z,33.47
2022-08-12T00:08:14.015Z,33.47
2022-08-12T00:09:14.020Z,33.47
2022-08-12T00:10:14.018Z,34.76
2022-08-12T00:11:13.981Z,34.11
2022-08-12T00:12:13.977Z,34.43
2022-08-12T00:13:13.917Z,33.79
2022-08-12T00:14:13.953Z,33.47
2022-08-12T00:15:13.940Z,34.43
2022-08-12T00:16:13.901Z,34.11
2022-08-12T00:17:13.881Z,33.47
2022-08-12T00:18:13.893Z,34.43
2022-08-12T00:19:13.878Z,34.76
2022-08-12T00:20:13.856Z,34.43
2022-08-12T00:21:13.828Z,34.76
2022-08-12T00:22:13.850Z,34.43
2022-08-12T00:23:13.822Z,35.08
2022-08-12T00:24:13.806Z,33.47
2022-08-12T00:25:13.794Z,33.47
2022-08-12T00:26:22.224Z,33.47
2022-08-12T00:27:13.763Z,37.01
2022-08-12T00:28:13.779Z,33.47
2022-08-12T00:29:13.744Z,33.47
2022-08-12T00:30:13.713Z,35.72
2022-08-12T00:31:13.739Z,35.08
2022-08-12T00:32:19.488Z,35.40
2022-08-12T00:33:13.707Z,35.08
2022-08-12T00:34:13.688Z,33.79
2022-08-12T00:35:13.656Z,34.43
2022-08-12T00:36:15.767Z,33.47
2022-08-12T00:37:14.223Z,33.47
2022-08-12T00:38:13.598Z,34.43
2022-08-12T00:39:13.667Z,34.43
2022-08-12T00:40:13.617Z,33.79
2022-08-12T00:41:13.594Z,34.43
2022-08-12T00:42:13.615Z,33.47
2022-08-12T00:43:13.534Z,33.47
2022-08-12T00:44:13.552Z,33.79
2022-08-12T00:45:13.528Z,33.79
2022-08-12T00:46:13.534Z,34.11
2022-08-12T00:47:25.254Z,35.40
2022-08-12T00:48:13.507Z,34.43
2022-08-12T00:49:13.454Z,34.11
2022-08-12T00:50:13.472Z,34.43
2022-08-12T00:51:13.458Z,34.43
2022-08-12T00:52:13.460Z,34.43
2022-08-12T00:53:13.458Z,35.08
2022-08-12T00:54:13.400Z,32.50
2022-08-12T00:55:13.443Z,33.47
2022-08-12T00:56:13.368Z,34.43
2022-08-12T00:57:13.376Z,33.79
2022-08-12T00:58:13.374Z,33.79
2022-08-12T00:59:13.355Z,34.76
2022-08-12T01:00:13.344Z,34.43
2022-08-12T01:01:13.424Z,34.11
2022-08-12T01:02:13.347Z,34.43
2022-08-12T01:03:13.300Z,35.08
2022-08-12T01:04:13.303Z,35.08
2022-08-12T01:05:13.290Z,34.43
2022-08-12T01:06:13.304Z,34.11
2022-08-12T01:07:13.247Z,33.47
2022-08-12T01:08:13.250Z,34.43
2022-08-12T01:09:13.216Z,34.43
2022-08-12T01:10:13.211Z,34.76
2022-08-12T01:11:13.225Z,33.47
2022-08-12T01:12:13.180Z,34.11
2022-08-12T01:13:20.007Z,34.11
2022-08-12T01:14:13.158Z,35.40
2022-08-12T01:15:13.144Z,33.79
2022-08-12T01:16:13.148Z,35.08
2022-08-12T01:17:13.106Z,33.47
2022-08-12T01:18:13.100Z,34.43
2022-08-12T01:19:13.121Z,33.47
2022-08-12T01:20:13.075Z,33.79
2022-08-12T01:21:13.053Z,33.79
2022-08-12T01:22:13.035Z,34.76
2022-08-12T01:23:13.037Z,34.76
2022-08-12T01:24:29.687Z,34.43
2022-08-12T01:25:13.013Z,34.43
2022-08-12T01:26:13.007Z,34.76
2022-08-12T01:27:12.963Z,34.11
2022-08-12T01:28:12.995Z,34.43
2022-08-12T01:29:12.945Z,34.43
2022-08-12T01:30:12.991Z,33.47
2022-08-12T01:31:16.225Z,36.04
2022-08-12T01:32:12.932Z,34.43
2022-08-12T01:33:12.887Z,34.11
2022-08-12T01:34:35.723Z,35.40
2022-08-12T01:35:12.856Z,33.47
2022-08-12T01:36:12.862Z,35.08
2022-08-12T01:37:12.828Z,33.47
2022-08-12T01:38:12.844Z,34.43
2022-08-12T01:39:12.831Z,35.08
2022-08-12T01:40:31.437Z,34.11
2022-08-12T01:41:12.822Z,35.08
2022-08-12T01:42:12.778Z,35.40
2022-08-12T01:43:12.793Z,33.47
2022-08-12T01:44:12.732Z,33.47
2022-08-12T01:45:12.731Z,36.69
2022-08-12T01:46:12.735Z,35.40
2022-08-12T01:47:12.707Z,33.79
2022-08-12T01:48:12.712Z,34.76
2022-08-12T01:49:12.676Z,35.40
2022-08-12T01:50:12.684Z,35.72
2022-08-12T01:51:12.666Z,34.43
2022-08-12T01:52:22.842Z,35.40
2022-08-12T01:53:12.689Z,33.79
2022-08-12T01:54:12.621Z,35.08
2022-08-12T01:55:12.635Z,34.43
2022-08-12T01:56:12.597Z,36.04
2022-08-12T01:57:12.592Z,35.08
2022-08-12T01:58:12.637Z,35.72
2022-08-12T01:59:12.572Z,34.43
2022-08-12T02:00:12.544Z,34.76
2022-08-12T02:01:12.558Z,33.47
2022-08-12T02:02:12.502Z,33.14
2022-08-12T02:03:12.497Z,34.11
2022-08-12T02:04:12.494Z,32.82
2022-08-12T02:05:12.489Z,32.82
2022-08-12T02:06:12.463Z,33.14
2022-08-12T02:07:12.459Z,34.11
2022-08-12T02:08:12.440Z,34.11
2022-08-12T02:09:12.430Z,34.11
2022-08-12T02:10:49.283Z,34.76
2022-08-12T02:11:12.408Z,32.82
2022-08-12T02:12:12.367Z,33.47
2022-08-12T02:13:12.392Z,34.76
2022-08-12T02:14:12.394Z,34.76
2022-08-12T02:15:12.384Z,31.53
2022-08-12T02:16:12.335Z,34.11
2022-08-12T02:17:12.331Z,32.50
2022-08-12T02:18:12.305Z,32.50
2022-08-12T02:19:21.917Z,33.14
2022-08-12T02:20:12.272Z,35.08
2022-08-12T02:21:12.269Z,32.82
2022-08-12T02:22:12.268Z,32.50
2022-08-12T02:23:12.231Z,34.43
2022-08-12T02:24:12.207Z,32.50
2022-08-12T02:25:12.198Z,33.47
2022-08-12T02:26:12.199Z,39.59
2022-08-12T02:27:12.190Z,33.47
2022-08-12T02:28:12.198Z,33.47
2022-08-12T02:29:12.198Z,34.43
2022-08-12T02:30:12.128Z,36.04
2022-08-12T02:31:12.126Z,33.79
2022-08-12T02:32:12.121Z,32.18
2022-08-12T02:33:12.171Z,31.86
2022-08-12T02:34:12.083Z,33.79
2022-08-12T02:35:12.101Z,34.11
2022-08-12T02:36:12.057Z,34.76
2022-08-12T02:37:12.047Z,33.47
2022-08-12T02:38:12.030Z,33.14
2022-08-12T02:39:12.095Z,33.47
2022-08-12T02:40:12.288Z,32.18
2022-08-12T02:41:12.006Z,32.18
2022-08-12T02:42:11.991Z,33.79
2022-08-12T02:43:11.982Z,36.69
2022-08-12T02:44:12.010Z,33.47
2022-08-12T02:45:11.932Z,33.14
2022-08-12T02:46:14.838Z,33.47
2022-08-12T02:47:55.539Z,33.14
2022-08-12T02:48:11.890Z,32.18
2022-08-12T02:49:11.896Z,33.79
2022-08-12T02:50:11.909Z,33.14
2022-08-12T02:51:11.854Z,33.14
2022-08-12T02:52:11.879Z,33.14
2022-08-12T02:53:11.980Z,32.82
2022-08-12T02:54:11.822Z,34.11
2022-08-12T02:55:11.813Z,34.76
2022-08-12T02:56:11.792Z,34.43
2022-08-12T02:57:11.794Z,32.50
2022-08-12T02:58:12.301Z,32.82
2022-08-12T02:59:11.753Z,34.11
2022-08-12T03:00:11.720Z,35.08
2022-08-12T03:01:11.831Z,34.76
2022-08-12T03:02:11.720Z,32.18
2022-08-12T03:03:11.708Z,33.47
2022-08-12T03:04:15.286Z,32.82
2022-08-12T03:05:11.688Z,32.82
2022-08-12T03:06:11.640Z,32.82
2022-08-12T03:07:11.659Z,34.43
2022-08-12T03:08:12.239Z,34.11
2022-08-12T03:09:11.618Z,34.43
2022-08-12T03:10:16.071Z,34.11
2022-08-12T03:11:14.306Z,37.66
2022-08-12T03:12:12.157Z,34.76
2022-08-12T03:13:11.592Z,32.82
2022-08-12T03:14:11.553Z,34.43
2022-08-12T03:15:11.582Z,33.47
2022-08-12T03:16:11.523Z,33.79
2022-08-12T03:17:11.519Z,35.08
2022-08-12T03:18:27.526Z,33.79
2022-08-12T03:19:11.474Z,35.08
2022-08-12T03:20:11.476Z,33.79
2022-08-12T03:21:11.467Z,34.43
2022-08-12T03:22:11.445Z,34.43
2022-08-12T03:23:11.492Z,37.98
2022-08-12T03:24:11.454Z,34.11
2022-08-12T03:25:11.390Z,35.08
2022-08-12T03:26:11.390Z,37.66
2022-08-12T03:27:11.386Z,36.04
2022-08-12T03:28:11.348Z,35.08
2022-08-12T03:29:11.363Z,34.76
2022-08-12T03:30:11.340Z,35.40
2022-08-12T03:31:11.317Z,34.43
2022-08-12T03:32:35.743Z,34.43
2022-08-12T03:33:11.317Z,35.72
2022-08-12T03:34:11.307Z,41.20
2022-08-12T03:35:40.013Z,35.40
2022-08-12T03:36:11.294Z,37.33
2022-08-12T03:37:11.264Z,44.42
2022-08-12T03:38:11.829Z,36.37
2022-08-12T03:39:11.292Z,35.40
2022-08-12T03:40:11.275Z,38.30
2022-08-12T03:41:11.213Z,35.72
2022-08-12T03:42:11.183Z,36.04
2022-08-12T03:43:11.639Z,37.66
2022-08-12T03:44:11.132Z,34.76
2022-08-12T03:45:11.139Z,36.04
2022-08-12T03:46:11.107Z,34.43
2022-08-12T03:47:11.126Z,35.08
2022-08-12T03:48:11.102Z,35.40
2022-08-12T03:49:11.088Z,35.08
2022-08-12T03:50:11.073Z,34.76
2022-08-12T03:51:11.072Z,36.69
2022-08-12T03:52:11.069Z,35.08
2022-08-12T03:53:11.070Z,35.08
2022-08-12T03:54:11.682Z,36.04
2022-08-12T03:55:11.015Z,39.27
2022-08-12T03:56:10.980Z,38.95
2022-08-12T03:57:10.994Z,37.33
2022-08-12T03:58:10.985Z,52.48
2022-08-12T03:59:10.978Z,36.37
2022-08-12T04:00:10.922Z,36.04
2022-08-12T04:01:10.974Z,35.08
2022-08-12T04:02:10.897Z,35.40
2022-08-12T04:03:12.885Z,35.72
2022-08-12T04:04:10.911Z,37.66
2022-08-12T04:05:10.915Z,35.08
2022-08-12T04:06:10.845Z,35.40
2022-08-12T04:07:10.853Z,36.04
2022-08-12T04:08:10.838Z,37.33
2022-08-12T04:09:15.004Z,40.23
2022-08-12T04:10:10.826Z,36.04
2022-08-12T04:11:10.798Z,36.69
2022-08-12T04:12:10.784Z,36.69
2022-08-12T04:13:10.751Z,39.91
2022-08-12T04:14:10.752Z,42.49
2022-08-12T04:15:10.755Z,35.40
2022-08-12T04:16:10.729Z,39.27
2022-08-12T04:17:10.697Z,35.40
2022-08-12T04:18:10.708Z,36.04
2022-08-12T04:19:10.693Z,36.04
2022-08-12T04:20:10.666Z,36.69
2022-08-12T04:21:10.714Z,35.08
2022-08-12T04:22:10.629Z,40.88
2022-08-12T04:23:10.624Z,35.72
2022-08-12T04:24:10.626Z,35.40
2022-08-12T04:25:10.646Z,36.69
2022-08-12T04:26:10.575Z,39.91
2022-08-12T04:27:10.568Z,36.69
2022-08-12T04:28:13.090Z,36.69
2022-08-12T04:29:10.540Z,35.72
2022-08-12T04:30:29.374Z,37.66
2022-08-12T04:31:10.553Z,38.62
2022-08-12T04:32:10.538Z,38.62
2022-08-12T04:33:10.509Z,36.04
2022-08-12T04:34:10.485Z,36.04
2022-08-12T04:35:10.481Z,39.27
2022-08-12T04:36:10.467Z,36.04
2022-08-12T04:37:10.458Z,44.42
2022-08-12T04:38:10.466Z,41.85
2022-08-12T04:39:10.453Z,37.33
2022-08-12T04:40:10.387Z,39.91
2022-08-12T04:41:10.414Z,41.52
2022-08-12T04:42:10.390Z,35.08
2022-08-12T04:44:00.098Z,35.40
2022-08-12T04:44:10.384Z,36.37
2022-08-12T04:45:10.361Z,39.59
2022-08-12T04:46:10.348Z,40.23
2022-08-12T04:47:10.351Z,35.08
2022-08-12T04:48:10.325Z,38.62
2022-08-12T04:49:10.280Z,37.01
2022-08-12T04:50:34.460Z,38.95
2022-08-12T04:51:10.282Z,39.91
2022-08-12T04:52:10.233Z,42.17
2022-08-12T04:53:10.249Z,35.72
2022-08-12T04:54:10.207Z,37.33
2022-08-12T04:55:10.214Z,36.04
2022-08-12T04:56:10.180Z,35.72
2022-08-12T04:57:10.186Z,33.14
2022-08-12T04:58:10.159Z,37.98
2022-08-12T04:59:10.177Z,34.11
2022-08-12T05:00:10.157Z,34.76
2022-08-12T05:01:10.150Z,35.40
2022-08-12T05:02:16.613Z,38.62
2022-08-12T05:03:10.110Z,45.39
2022-08-12T05:04:10.103Z,37.66
2022-08-12T05:05:10.071Z,35.72
2022-08-12T05:06:10.067Z,39.91
2022-08-12T05:07:10.063Z,38.62
2022-08-12T05:08:10.022Z,37.01
2022-08-12T05:09:11.137Z,35.72
2022-08-12T05:10:09.998Z,34.11
2022-08-12T05:11:10.012Z,35.08
2022-08-12T05:12:10.005Z,34.76
2022-08-12T05:13:09.988Z,34.76
2022-08-12T05:14:09.984Z,35.08
2022-08-12T05:15:27.895Z,35.40
2022-08-12T05:16:09.930Z,35.08
2022-08-12T05:17:09.975Z,37.01
2022-08-12T05:18:20.390Z,39.59
2022-08-12T05:19:18.487Z,35.40
2022-08-12T05:20:10.056Z,36.04
2022-08-12T05:21:09.886Z,36.04
2022-08-12T05:22:09.877Z,35.40
2022-08-12T05:23:13.079Z,31.86
2022-08-12T05:24:09.820Z,41.52
2022-08-12T05:25:09.821Z,37.33
2022-08-12T05:26:09.854Z,35.72
2022-08-12T05:27:09.803Z,35.40
2022-08-12T05:28:09.779Z,37.98
2022-08-12T05:30:06.206Z,38.62
2022-08-12T05:30:13.099Z,35.08
2022-08-12T05:31:09.736Z,34.76
2022-08-12T05:32:09.708Z,34.43
2022-08-12T05:33:09.715Z,34.43
2022-08-12T05:34:09.706Z,36.37
2022-08-12T05:35:09.676Z,35.08
2022-08-12T05:36:09.669Z,39.27
2022-08-12T05:37:09.640Z,33.47
2022-08-12T05:38:09.641Z,33.47
2022-08-12T05:39:09.659Z,35.72
2022-08-12T05:40:11.523Z,39.59
2022-08-12T05:41:09.627Z,35.40
2022-08-12T05:42:09.595Z,33.47
2022-08-12T05:43:09.562Z,35.40
2022-08-12T05:44:09.564Z,40.88
2022-08-12T05:45:09.543Z,33.79
2022-08-12T05:46:09.560Z,36.37
2022-08-12T05:47:09.527Z,38.95
2022-08-12T05:48:09.490Z,38.30
2022-08-12T05:49:09.492Z,35.40
2022-08-12T05:50:09.490Z,33.47
2022-08-12T05:51:09.458Z,34.11
2022-08-12T05:52:09.448Z,38.62
2022-08-12T05:53:09.437Z,33.47
2022-08-12T05:54:09.414Z,38.30
2022-08-12T05:55:09.445Z,34.76
2022-08-12T05:56:09.404Z,31.86
2022-08-12T05:57:09.382Z,36.04
2022-08-12T05:58:09.376Z,33.14
2022-08-12T05:59:09.354Z,35.08
2022-08-12T06:00:09.340Z,35.08
2022-08-12T06:02:10.464Z,37.33
2022-08-12T06:02:17.483Z,38.30
2022-08-12T06:03:09.382Z,36.04
2022-08-12T06:04:09.285Z,36.04
2022-08-12T06:05:09.272Z,36.04
2022-08-12T06:06:09.393Z,34.43
2022-08-12T06:08:00.910Z,34.11
2022-08-12T06:08:09.261Z,34.43
2022-08-12T06:09:09.241Z,38.30
2022-08-12T06:10:09.227Z,35.40
2022-08-12T06:11:09.203Z,35.72
2022-08-12T06:12:09.209Z,34.43
2022-08-12T06:13:09.160Z,34.76
2022-08-12T06:14:11.723Z,56.03
2022-08-12T06:15:09.162Z,35.40
2022-08-12T06:16:09.170Z,37.66
2022-08-12T06:17:09.301Z,39.59
2022-08-12T06:18:13.995Z,33.14
2022-08-12T06:19:09.113Z,41.20
2022-08-12T06:20:26.298Z,34.43
2022-08-12T06:21:09.061Z,37.98
2022-08-12T06:22:09.071Z,32.82
2022-08-12T06:23:09.049Z,33.47
2022-08-12T06:24:09.042Z,34.11
2022-08-12T06:25:09.025Z,36.37
2022-08-12T06:26:09.005Z,35.08
2022-08-12T06:27:08.994Z,32.50
2022-08-12T06:28:08.973Z,34.43
2022-08-12T06:29:08.955Z,34.11
2022-08-12T06:30:12.731Z,35.40
2022-08-12T06:31:25.171Z,32.50
2022-08-12T06:32:08.948Z,33.79
2022-08-12T06:33:22.640Z,33.47
2022-08-12T06:35:24.929Z,33.47
2022-08-12T06:35:57.630Z,35.08
2022-08-12T06:36:08.950Z,33.79
2022-08-12T06:37:08.849Z,32.18
2022-08-12T06:38:08.859Z,37.98
2022-08-12T06:39:14.430Z,34.76
2022-08-12T06:40:08.902Z,31.53
2022-08-12T06:41:08.826Z,33.47
2022-08-12T06:42:32.331Z,32.82
2022-08-12T06:43:08.778Z,31.21
2022-08-12T06:44:08.779Z,33.14
2022-08-12T06:45:12.180Z,31.53
2022-08-12T06:46:08.756Z,31.53
2022-08-12T06:47:08.723Z,34.43
2022-08-12T06:48:08.725Z,31.53
2022-08-12T06:49:08.704Z,37.01
2022-08-12T06:50:08.688Z,31.53
2022-08-12T06:51:08.678Z,35.40
2022-08-12T06:52:08.669Z,31.53
2022-08-12T06:53:08.649Z,31.53
2022-08-12T06:54:08.636Z,40.56
2022-08-12T06:55:08.627Z,41.52
2022-08-12T06:56:12.415Z,41.52
2022-08-12T06:58:04.436Z,56.03
2022-08-12T06:58:14.159Z,32.82
2022-08-12T06:59:08.556Z,32.50
2022-08-12T07:00:08.590Z,38.62
2022-08-12T07:01:08.705Z,32.50
2022-08-12T07:02:08.557Z,33.47
2022-08-12T07:03:16.248Z,34.76
2022-08-12T07:04:33.816Z,35.40
2022-08-12T07:05:08.499Z,41.20
2022-08-12T07:06:08.499Z,32.50
2022-08-12T07:07:08.831Z,34.76
2022-08-12T07:08:10.213Z,32.50
2022-08-12T07:09:09.693Z,33.14
2022-08-12T07:10:08.658Z,31.53
2022-08-12T07:11:08.420Z,38.62
2022-08-12T07:12:08.422Z,35.08
2022-08-12T07:13:08.565Z,35.40
2022-08-12T07:14:13.055Z,35.72
2022-08-12T07:15:08.408Z,35.40
2022-08-12T07:16:08.363Z,34.11
2022-08-12T07:17:08.321Z,33.47
2022-08-12T07:18:08.350Z,34.43
2022-08-12T07:19:08.318Z,33.47
2022-08-12T07:20:08.302Z,31.86
2022-08-12T07:21:08.294Z,34.76
2022-08-12T07:22:08.257Z,34.43
2022-08-12T07:23:08.344Z,37.66
2022-08-12T07:24:08.241Z,37.01
2022-08-12T07:25:08.217Z,33.14
2022-08-12T07:26:08.233Z,42.17
2022-08-12T07:27:08.218Z,39.27
2022-08-12T07:28:08.958Z,36.04
2022-08-12T07:29:08.191Z,36.69
2022-08-12T07:30:08.170Z,36.04
2022-08-12T07:31:08.155Z,33.47
2022-08-12T07:32:08.167Z,32.18
2022-08-12T07:33:08.161Z,37.01
2022-08-12T07:34:08.134Z,40.23
2022-08-12T07:35:08.115Z,38.95
2022-08-12T07:36:08.078Z,35.72
2022-08-12T07:37:08.076Z,41.52
2022-08-12T07:38:08.073Z,33.79
2022-08-12T07:39:08.129Z,44.10
2022-08-12T07:40:08.117Z,33.47
2022-08-12T07:41:08.019Z,44.10
2022-08-12T07:42:08.101Z,40.56
2022-08-12T07:43:07.978Z,37.66
2022-08-12T07:44:08.020Z,35.72
2022-08-12T07:45:07.993Z,33.14
2022-08-12T07:46:07.974Z,37.01
2022-08-12T07:47:07.928Z,34.43
2022-08-12T07:48:07.956Z,56.03
2022-08-12T07:49:07.931Z,43.13
2022-08-12T07:50:07.997Z,45.71
2022-08-12T07:51:07.962Z,48.94
2022-08-12T07:52:07.870Z,47.32
2022-08-12T07:53:07.865Z,52.16
2022-08-12T07:54:07.869Z,55.70
2022-08-12T07:55:07.880Z,42.17
2022-08-12T07:56:07.873Z,46.68
2022-08-12T07:57:07.839Z,44.42
2022-08-12T07:58:07.802Z,48.94
2022-08-12T07:59:07.814Z,47.32
2022-08-12T08:00:07.809Z,48.94
2022-08-12T08:01:07.809Z,51.84
2022-08-12T08:02:07.764Z,45.71
2022-08-12T08:03:07.806Z,66.02
2022-08-12T08:04:07.725Z,43.78
2022-08-12T08:05:07.689Z,47.00
2022-08-12T08:06:07.726Z,50.87
2022-08-12T08:07:07.747Z,49.58
2022-08-12T08:08:07.712Z,43.78
2022-08-12T08:09:07.668Z,51.84
2022-08-12T08:10:07.677Z,42.81
2022-08-12T08:11:07.625Z,50.22
2022-08-12T08:12:07.640Z,44.75
2022-08-12T08:13:07.599Z,44.10
2022-08-12T08:14:07.576Z,47.32
2022-08-12T08:15:07.559Z,46.36
2022-08-12T08:16:07.575Z,43.46
2022-08-12T08:17:07.687Z,42.17
2022-08-12T08:18:07.566Z,42.49
2022-08-12T08:19:07.558Z,46.04
2022-08-12T08:20:07.516Z,43.78
2022-08-12T08:21:08.059Z,48.29
2022-08-12T08:22:07.500Z,46.36
2022-08-12T08:23:07.580Z,41.20
2022-08-12T08:24:07.478Z,45.71
2022-08-12T08:25:34.428Z,42.49
2022-08-12T08:26:07.523Z,42.17
2022-08-12T08:27:07.441Z,50.55
2022-08-12T08:28:07.532Z,45.07
2022-08-12T08:29:07.538Z,45.07
2022-08-12T08:30:07.416Z,43.78
2022-08-12T08:31:07.376Z,43.78
2022-08-12T08:32:07.389Z,43.78
2022-08-12T08:33:22.868Z,44.10
2022-08-12T08:34:33.668Z,40.23
2022-08-12T08:35:07.344Z,44.75
2022-08-12T08:36:16.193Z,44.75
2022-08-12T08:37:07.861Z,41.52
2022-08-12T08:38:07.297Z,44.10
2022-08-12T08:39:07.270Z,52.16
2022-08-12T08:40:07.254Z,42.81
2022-08-12T08:41:07.236Z,43.46
2022-08-12T08:42:15.318Z,39.59
2022-08-12T08:43:07.246Z,41.52
2022-08-12T08:44:07.285Z,44.75
2022-08-12T08:45:07.196Z,41.20
2022-08-12T08:46:07.225Z,45.71
2022-08-12T08:47:07.293Z,44.75
2022-08-12T08:48:07.198Z,48.94
2022-08-12T08:49:07.184Z,43.46
2022-08-12T08:50:07.164Z,48.29
2022-08-12T08:51:07.162Z,43.13
2022-08-12T08:52:07.136Z,46.04
2022-08-12T08:53:07.106Z,46.04
2022-08-12T08:54:07.117Z,44.75
2022-08-12T08:55:07.167Z,46.36
2022-08-12T08:56:07.063Z,46.36
2022-08-12T08:57:07.072Z,45.39
2022-08-12T08:58:07.079Z,43.78
2022-08-12T08:59:07.051Z,46.68
2022-08-12T09:00:07.049Z,46.04
2022-08-12T09:01:07.025Z,43.78
2022-08-12T09:02:07.706Z,44.42
2022-08-12T09:05:07.638Z,40.88
2022-08-12T09:05:24.808Z,43.13
2022-08-12T09:05:42.988Z,46.36
2022-08-12T09:06:37.156Z,44.10
2022-08-12T09:07:51.349Z,47.97
2022-08-12T09:08:28.847Z,54.41
2022-08-12T09:28:49.957Z,43.13
2022-08-12T09:28:58.668Z,43.13
2022-08-12T09:30:09.630Z,44.42
2022-08-12T09:30:59.088Z,43.78
2022-08-12T09:32:07.337Z,47.00
2022-08-12T09:33:14.424Z,44.10
2022-08-12T09:34:28.445Z,42.81
2022-08-12T09:34:58.612Z,44.42
2022-08-12T09:36:03.359Z,44.75
2022-08-12T09:37:02.190Z,42.17
2022-08-12T09:38:01.177Z,44.10
2022-08-12T09:39:01.000Z,45.07
2022-08-12T09:40:05.244Z,46.36
2022-08-12T09:42:07.991Z,45.71
2022-08-12T09:42:42.739Z,47.00
2022-08-12T09:43:17.372Z,46.04
2022-08-12T09:44:01.258Z,47.97
2022-08-12T09:45:18.564Z,46.04
2022-08-12T09:46:11.113Z,46.68
2022-08-12T09:46:58.487Z,42.49
2022-08-12T09:48:00.037Z,42.17
2022-08-12T09:48:58.598Z,46.68
2022-08-12T09:49:58.639Z,43.46
2022-08-12T09:50:58.693Z,45.07
2022-08-12T09:51:58.460Z,47.00
2022-08-12T09:53:03.904Z,45.07
2022-08-12T09:54:08.517Z,42.17
2022-08-12T09:55:02.494Z,46.04
2022-08-12T09:56:07.289Z,46.04
2022-08-12T09:58:07.739Z,46.36
2022-08-12T09:59:00.301Z,46.36
2022-08-12T09:59:06.271Z,49.58
2022-08-12T10:00:13.819Z,44.75
2022-08-12T10:01:06.588Z,44.42
2022-08-12T10:02:42.010Z,47.32
2022-08-12T10:03:05.618Z,46.36
2022-08-12T10:04:05.407Z,42.49
2022-08-12T10:05:05.411Z,41.20
2022-08-12T10:06:27.064Z,44.75
2022-08-12T10:07:05.466Z,44.75
2022-08-12T10:08:05.440Z,39.91
2022-08-12T10:09:05.549Z,44.75
2022-08-12T10:10:05.430Z,44.75
2022-08-12T10:11:05.378Z,44.10
2022-08-12T10:12:12.288Z,46.68
2022-08-12T10:13:08.406Z,44.10
2022-08-12T10:14:05.332Z,45.71
2022-08-12T10:15:05.406Z,39.91
2022-08-12T10:16:06.042Z,40.88
2022-08-12T10:17:08.590Z,43.46
2022-08-12T10:18:06.949Z,43.78
2022-08-12T10:19:05.236Z,41.85
2022-08-12T10:20:05.221Z,41.20
2022-08-12T10:21:05.234Z,42.17
2022-08-12T10:22:05.178Z,46.68
2022-08-12T10:23:05.181Z,44.42
2022-08-12T10:24:05.194Z,43.78
2022-08-12T10:25:17.616Z,51.19
2022-08-12T10:26:33.987Z,47.97
2022-08-12T10:27:06.052Z,45.71
2022-08-12T10:28:10.696Z,47.97
2022-08-12T10:30:01.112Z,43.46
2022-08-12T10:30:39.825Z,40.56
2022-08-12T10:31:05.484Z,38.30
2022-08-12T10:32:20.747Z,46.68
2022-08-12T10:33:18.329Z,44.42
2022-08-12T10:34:23.405Z,44.10
2022-08-12T10:35:05.066Z,44.10
2022-08-12T10:36:05.032Z,44.42
2022-08-12T10:37:23.170Z,43.78
2022-08-12T10:38:41.523Z,46.68
2022-08-12T10:40:02.226Z,40.56
2022-08-12T10:40:19.274Z,43.13
2022-08-12T10:41:05.046Z,52.16
2022-08-12T10:42:05.004Z,55.38
2022-08-12T10:43:04.960Z,37.66
2022-08-12T10:44:04.983Z,36.69
2022-08-12T10:45:04.928Z,32.50
2022-08-12T10:46:04.938Z,39.27
2022-08-12T10:48:01.053Z,32.50
2022-08-12T10:48:21.147Z,34.43
2022-08-12T10:49:06.642Z,34.76
2022-08-12T10:50:28.504Z,37.66
2022-08-12T10:52:05.423Z,34.43
2022-08-12T10:52:52.426Z,34.76
2022-08-12T10:53:04.866Z,34.76
2022-08-12T10:54:04.823Z,34.76
2022-08-12T10:55:06.998Z,34.76
2022-08-12T10:56:04.813Z,35.08
2022-08-12T10:57:04.821Z,36.04
2022-08-12T10:58:15.665Z,33.47
2022-08-12T10:59:04.798Z,31.53
2022-08-12T11:00:34.571Z,37.98
2022-08-12T11:01:26.095Z,35.08
2022-08-12T11:04:39.590Z,34.76
2022-08-12T11:04:50.286Z,36.04
2022-08-12T11:07:07.719Z,40.56
2022-08-12T11:08:43.396Z,32.50
2022-08-12T11:08:50.968Z,34.76
2022-08-12T11:10:00.133Z,33.47
2022-08-12T11:10:50.548Z,47.00
2022-08-12T11:12:35.095Z,47.65
2022-08-12T11:13:01.934Z,35.72
2022-08-12T11:13:50.485Z,34.43
2022-08-12T11:14:51.461Z,31.21
2022-08-12T11:16:03.956Z,36.04
2022-08-12T11:17:34.127Z,34.76
2022-08-12T11:17:53.235Z,37.33
2022-08-12T11:18:55.487Z,42.17
2022-08-12T11:19:50.457Z,35.08
2022-08-12T11:20:52.035Z,36.69
2022-08-12T11:21:56.804Z,42.81
2022-08-12T11:22:57.689Z,34.11
2022-08-12T11:23:53.519Z,34.43
2022-08-12T11:24:51.612Z,35.40
2022-08-12T11:25:57.665Z,31.86
2022-08-12T11:26:50.426Z,31.86
2022-08-12T11:27:51.345Z,36.69
2022-08-12T11:28:50.446Z,34.11
2022-08-12T11:30:05.601Z,32.18
2022-08-12T11:30:50.328Z,36.04
2022-08-12T11:32:01.825Z,31.21
2022-08-12T11:32:50.295Z,32.82
2022-08-12T11:34:05.377Z,31.86
2022-08-12T11:34:52.396Z,30.89
2022-08-12T11:35:50.694Z,30.89
2022-08-12T11:36:53.340Z,34.11
2022-08-12T11:37:59.109Z,34.43
2022-08-12T11:38:50.884Z,34.11
2022-08-12T11:40:50.172Z,33.47
2022-08-12T11:41:50.218Z,42.17
2022-08-12T11:42:50.386Z,34.11
2022-08-12T11:43:58.567Z,35.08
2022-08-12T11:44:50.127Z,34.76
2022-08-12T11:45:52.922Z,39.27
2022-08-12T11:46:51.018Z,37.98
2022-08-12T11:47:50.113Z,36.04
2022-08-12T11:48:51.039Z,35.72
2022-08-12T11:49:52.013Z,31.53
2022-08-12T11:50:50.048Z,37.98
2022-08-12T11:51:57.731Z,35.08
2022-08-12T11:52:56.123Z,32.50
2022-08-12T11:53:57.232Z,32.50
2022-08-12T11:54:51.065Z,35.72
2022-08-12T11:55:50.041Z,32.50
2022-08-12T11:56:52.352Z,35.72
2022-08-12T11:58:14.251Z,32.82
2022-08-12T12:02:02.331Z,34.11
2022-08-12T12:02:49.993Z,43.13
2022-08-12T12:03:49.948Z,46.36
2022-08-12T12:04:52.596Z,30.57
2022-08-12T12:05:49.926Z,34.76
2022-08-12T12:06:53.132Z,32.82
2022-08-12T12:08:38.803Z,29.28
2022-08-12T12:08:52.763Z,30.57
2022-08-12T12:09:52.702Z,30.57
2022-08-12T12:10:49.862Z,36.04
2022-08-12T12:11:49.852Z,32.18
2022-08-12T12:12:50.655Z,34.76
2022-08-12T12:14:08.744Z,32.18
2022-08-12T12:14:54.570Z,36.37
2022-08-12T12:15:49.809Z,34.43
2022-08-12T12:16:50.939Z,41.52
2022-08-12T12:17:49.810Z,34.11
2022-08-12T12:18:49.771Z,35.40
2022-08-12T12:19:49.780Z,33.47
2022-08-12T12:20:49.753Z,33.79
2022-08-12T12:21:49.766Z,36.04
2022-08-12T12:22:49.746Z,34.76
2022-08-12T12:23:49.730Z,35.08
2022-08-12T12:24:49.693Z,37.66
2022-08-12T12:25:59.338Z,39.59
2022-08-12T12:27:00.277Z,34.43
2022-08-12T12:28:05.580Z,34.11
2022-08-12T12:28:54.379Z,34.11
2022-08-12T12:30:13.823Z,35.72
2022-08-12T12:30:54.858Z,34.76
2022-08-12T12:32:11.562Z,35.72
2022-08-12T12:32:53.470Z,38.62
2022-08-12T12:33:57.892Z,37.33
2022-08-12T12:35:14.311Z,37.66
2022-08-12T12:36:20.399Z,32.50
2022-08-12T12:36:54.916Z,31.86
2022-08-12T12:38:03.279Z,32.50
2022-08-12T12:38:49.568Z,36.04
2022-08-12T12:39:54.867Z,33.79
2022-08-12T12:40:50.563Z,62.47
2022-08-12T12:42:44.332Z,31.86
2022-08-12T12:43:01.804Z,35.72
2022-08-12T12:44:03.854Z,36.37
2022-08-12T12:44:53.415Z,37.66
2022-08-12T12:45:49.512Z,35.40
2022-08-12T12:46:49.835Z,39.59
2022-08-12T12:47:49.459Z,32.18
2022-08-12T12:48:49.452Z,34.43
2022-08-12T12:49:53.665Z,35.08
2022-08-12T12:50:51.863Z,32.50
2022-08-12T12:52:18.195Z,33.79
2022-08-12T12:52:49.450Z,35.40
2022-08-12T12:54:06.067Z,34.76
2022-08-12T12:54:49.404Z,33.14
2022-08-12T12:55:49.375Z,30.89
2022-08-12T12:56:50.070Z,42.17
2022-08-12T12:57:59.407Z,36.04
2022-08-12T12:58:49.400Z,32.82
2022-08-12T12:59:55.911Z,36.37
2022-08-12T13:00:50.865Z,36.37
2022-08-12T13:01:50.292Z,41.52
2022-08-12T13:02:53.763Z,34.76
2022-08-12T13:03:49.691Z,34.43
2022-08-12T13:04:49.261Z,37.66
2022-08-12T13:05:53.980Z,38.62
2022-08-12T13:06:49.275Z,42.49
2022-08-12T13:07:55.201Z,45.39
2022-08-12T13:08:49.232Z,31.53
2022-08-12T13:09:49.326Z,37.33
2022-08-12T13:10:51.090Z,36.04
2022-08-12T13:11:53.096Z,39.27
2022-08-12T13:12:49.238Z,37.66
2022-08-12T13:14:07.879Z,34.43
2022-08-12T13:14:49.177Z,35.40
2022-08-12T13:15:49.257Z,35.40
2022-08-12T13:16:49.145Z,38.30
2022-08-12T13:18:02.147Z,38.62